Time;durP1;ratioP1;P1;durP2;ratioP2;P2;SDS_P1;SDS_P2;PMS_P1;PMS_P2;Temp;Humidity;BMP_temperature;BMP_pressure;BME280_temperature;BME280_humidity;BME280_pressure;Samples;Min_cycle;Max_cycle;Signal;HPM_P1;HPM_P2
2022/12/12 00:02:21;;;;;;;20.60;11.27;;;-1.80;99.90;;;;;;5054181;28;20179;-82
2022/12/12 00:04:46;;;;;;;19.23;11.27;;;-1.70;99.90;;;;;;5053933;28;20285;-82
2022/12/12 00:07:12;;;;;;;20.43;11.83;;;-1.70;99.90;;;;;;5054275;28;20707;-82
2022/12/12 00:09:38;;;;;;;20.50;11.07;;;-1.80;99.90;;;;;;5072122;28;20173;-82
2022/12/12 00:12:03;;;;;;;19.27;10.33;;;-1.80;99.90;;;;;;5072379;28;20171;-82
2022/12/12 00:14:29;;;;;;;23.70;12.50;;;-1.70;99.90;;;;;;5072191;28;20286;-82
2022/12/12 00:16:54;;;;;;;19.77;11.53;;;-1.70;99.90;;;;;;5072533;28;20638;-82
2022/12/12 00:19:20;;;;;;;22.37;11.77;;;-1.70;99.90;;;;;;5071976;28;20172;-82
2022/12/12 00:21:46;;;;;;;24.17;11.90;;;-1.80;99.90;;;;;;5054150;28;20192;-82
2022/12/12 00:24:11;;;;;;;22.73;11.07;;;-1.80;99.90;;;;;;5053841;28;20208;-82
2022/12/12 00:26:37;;;;;;;22.23;11.70;;;-1.80;99.90;;;;;;5054183;28;20690;-82
2022/12/12 00:29:03;;;;;;;20.97;11.83;;;-1.80;99.90;;;;;;5072069;28;20261;-82
2022/12/12 00:31:29;;;;;;;23.37;11.73;;;-1.70;99.90;;;;;;5072002;28;20164;-82
2022/12/12 00:33:56;;;;;;;22.17;12.00;;;-1.70;99.90;;;;;;5053666;28;20208;-83
2022/12/12 00:36:23;;;;;;;23.73;12.47;;;-1.60;99.90;;;;;;5072022;28;20183;-82
2022/12/12 00:38:50;;;;;;;25.00;12.50;;;-1.70;99.90;;;;;;5071803;28;20249;-82
2022/12/12 00:41:16;;;;;;;19.97;12.07;;;-1.60;99.90;;;;;;5054086;28;20180;-82
2022/12/12 00:43:42;;;;;;;24.57;12.20;;;-1.60;99.90;;;;;;5071853;28;20203;-82
2022/12/12 00:46:09;;;;;;;20.57;11.70;;;-1.50;99.90;;;;;;5053816;28;20181;-82
2022/12/12 00:48:35;;;;;;;20.50;12.07;;;-1.60;99.90;;;;;;5053751;28;20176;-82
2022/12/12 00:51:08;;;;;;;24.47;12.23;;;-1.50;99.90;;;;;;5053810;28;20187;-82
2022/12/12 00:53:35;;;;;;;23.00;11.60;;;-1.60;99.90;;;;;;5072094;28;20199;-82
2022/12/12 00:56:01;;;;;;;21.50;11.63;;;-1.70;99.90;;;;;;5072015;28;20229;-82
2022/12/12 00:58:27;;;;;;;22.67;12.27;;;-1.70;99.90;;;;;;5071888;28;20184;-82
2022/12/12 01:00:53;;;;;;;20.17;11.17;;;-1.60;99.90;;;;;;5053833;28;20537;-82
2022/12/12 01:03:19;;;;;;;22.40;12.10;;;-1.70;99.90;;;;;;5091425;22;20223;-85
2022/12/12 01:05:45;;;;;;;26.40;12.87;;;-1.60;99.90;;;;;;5051789;28;20180;-85
2022/12/12 01:08:11;;;;;;;24.33;13.27;;;-1.60;99.90;;;;;;5051753;28;20210;-84
2022/12/12 01:10:37;;;;;;;24.70;13.13;;;-1.60;99.90;;;;;;5033939;28;20658;-84
2022/12/12 01:13:03;;;;;;;22.57;12.27;;;-1.70;99.90;;;;;;5033546;28;20267;-84
2022/12/12 01:15:28;;;;;;;24.63;13.73;;;-1.70;99.90;;;;;;5033585;28;20179;-84
2022/12/12 01:17:54;;;;;;;25.80;13.67;;;-1.70;99.90;;;;;;5037268;28;20175;-83
2022/12/12 01:20:23;;;;;;;24.73;13.57;;;-1.70;99.90;;;;;;5037656;28;20176;-84
2022/12/12 01:22:48;;;;;;;23.67;12.70;;;-1.60;99.90;;;;;;5037061;28;20175;-83
2022/12/12 01:25:15;;;;;;;24.67;13.43;;;-1.60;99.90;;;;;;5037037;28;20189;-83
2022/12/12 01:27:41;;;;;;;25.70;13.47;;;-1.70;99.90;;;;;;5037142;28;20293;-83
2022/12/12 01:30:10;;;;;;;22.67;12.30;;;-1.60;99.90;;;;;;5055011;28;20168;-84
2022/12/12 01:32:36;;;;;;;22.87;13.23;;;-1.60;99.90;;;;;;5037086;28;20172;-83
2022/12/12 01:35:06;;;;;;;24.60;13.17;;;-1.60;99.90;;;;;;5037207;28;20200;-83
2022/12/12 01:37:31;;;;;;;22.63;13.07;;;-1.50;99.90;;;;;;5055019;28;20196;-84
2022/12/12 01:39:57;;;;;;;23.00;12.67;;;-1.60;99.90;;;;;;5055011;28;20180;-84
2022/12/12 01:42:23;;;;;;;22.60;12.10;;;-1.60;99.90;;;;;;5036856;28;20211;-83
2022/12/12 01:44:51;;;;;;;23.43;12.87;;;-1.70;99.90;;;;;;5036810;28;20214;-83
2022/12/12 01:47:20;;;;;;;21.13;11.73;;;-1.70;99.90;;;;;;5036878;28;20199;-83
2022/12/12 01:50:10;;;;;;;22.50;12.97;;;-1.70;99.90;;;;;;5054662;28;20553;-83
2022/12/12 01:52:53;;;;;;;22.50;12.23;;;-1.70;99.90;;;;;;5036083;28;20241;-83
2022/12/12 01:55:21;;;;;;;22.77;12.30;;;-1.70;99.90;;;;;;5036964;28;20173;-83
2022/12/12 01:57:51;;;;;;;20.87;12.00;;;-1.70;99.90;;;;;;5036888;28;20665;-83
2022/12/12 02:00:17;;;;;;;23.03;12.73;;;-1.70;99.90;;;;;;5049457;28;20176;-83
2022/12/12 02:02:45;;;;;;;22.30;12.23;;;-1.80;99.90;;;;;;5031285;28;20184;-83
2022/12/12 02:05:20;;;;;;;23.33;12.70;;;-1.80;99.90;;;;;;5035359;28;20334;-83
2022/12/12 02:07:46;;;;;;;22.17;12.37;;;-1.90;99.90;;;;;;5036031;28;20203;-83
2022/12/12 02:10:11;;;;;;;23.73;12.90;;;-1.90;99.90;;;;;;5036390;28;20176;-82
2022/12/12 02:12:37;;;;;;;23.47;12.10;;;-1.90;99.90;;;;;;5035968;28;20176;-83
2022/12/12 02:15:03;;;;;;;23.93;12.80;;;-1.90;99.90;;;;;;5036342;28;20201;-83
2022/12/12 02:17:52;;;;;;;22.07;11.40;;;-1.90;99.90;;;;;;5036206;28;20179;-83
2022/12/12 02:20:45;;;;;;;22.43;11.83;;;-1.90;99.90;;;;;;5054136;28;20321;-83
2022/12/12 02:23:37;;;;;;;18.43;10.77;;;-1.90;99.90;;;;;;5053867;28;20249;-83
2022/12/12 02:26:30;;;;;;;22.83;12.07;;;-1.90;99.90;;;;;;5036540;28;20186;-84
2022/12/12 02:29:27;;;;;;;19.57;10.97;;;-1.80;99.90;;;;;;5036076;28;20178;-83
2022/12/12 02:32:11;;;;;;;21.93;11.33;;;-1.80;99.90;;;;;;5020096;28;20189;-83
2022/12/12 02:34:54;;;;;;;23.00;12.30;;;-1.80;99.90;;;;;;5053776;28;20190;-83
2022/12/12 02:37:25;;;;;;;25.23;12.33;;;-1.80;99.90;;;;;;5036242;28;20200;-83
2022/12/12 02:39:57;;;;;;;22.90;12.17;;;-1.80;99.90;;;;;;5053788;28;20638;-83
2022/12/12 02:42:28;;;;;;;22.63;12.03;;;-1.70;99.90;;;;;;5053657;28;20176;-83
2022/12/12 02:45:04;;;;;;;23.73;12.57;;;-1.70;99.90;;;;;;5035742;28;20756;-83
2022/12/12 02:47:34;;;;;;;21.40;12.13;;;-1.60;99.90;;;;;;5053497;28;20202;-83
2022/12/12 02:50:19;;;;;;;20.13;11.47;;;-1.60;99.90;;;;;;5035887;28;20237;-84
2022/12/12 02:52:46;;;;;;;23.43;13.23;;;-1.60;99.90;;;;;;5053470;28;20171;-84
2022/12/12 02:55:13;;;;;;;20.13;11.60;;;-1.60;99.90;;;;;;5035612;28;20200;-83
2022/12/12 02:57:41;;;;;;;24.47;12.87;;;-1.60;99.90;;;;;;5035710;28;20175;-83
2022/12/12 03:00:09;;;;;;;22.93;12.83;;;-1.70;99.90;;;;;;5035431;28;20667;-83
2022/12/12 03:07:45;;;;;;;21.50;12.57;;;-1.60;99.90;;;;;;5035665;28;20290;-83
2022/12/12 03:08:45;;;;;;;22.30;12.27;;;-1.40;99.90;;;;;;5053455;28;20275;-82
2022/12/12 03:11:20;;;;;;;24.23;13.03;;;-1.50;99.90;;;;;;5035376;28;20269;-83
2022/12/12 03:14:29;;;;;;;25.20;12.43;;;-1.60;99.90;;;;;;5035035;28;20192;-83
2022/12/12 03:17:33;;;;;;;23.33;12.30;;;-1.60;99.90;;;;;;5002286;28;20192;-83
2022/12/12 03:20:09;;;;;;;22.50;11.83;;;-1.60;99.90;;;;;;5035244;28;20180;-83
2022/12/12 03:22:38;;;;;;;21.20;11.93;;;-1.60;99.90;;;;;;5034459;28;20179;-83
2022/12/12 03:25:18;;;;;;;21.73;12.83;;;-1.70;99.90;;;;;;5035072;28;20197;-83
2022/12/12 03:27:51;;;;;;;23.70;13.33;;;-1.70;99.90;;;;;;5035053;28;20206;-83
2022/12/12 03:30:17;;;;;;;20.90;12.37;;;-1.60;99.90;;;;;;5034943;28;20169;-83
2022/12/12 03:32:51;;;;;;;22.77;13.00;;;-1.70;99.90;;;;;;5034691;28;20177;-83
2022/12/12 03:35:32;;;;;;;25.30;13.53;;;-1.70;99.90;;;;;;5035055;28;20654;-86
2022/12/12 03:38:03;;;;;;;22.47;13.43;;;-1.70;99.90;;;;;;5034905;28;20642;-83
2022/12/12 03:40:38;;;;;;;24.03;12.47;;;-1.80;99.90;;;;;;5052281;28;20190;-83
2022/12/12 03:43:10;;;;;;;24.43;12.57;;;-1.70;99.90;;;;;;5034525;28;20172;-83
2022/12/12 03:45:47;;;;;;;24.87;12.77;;;-1.70;99.90;;;;;;5034506;28;20184;-83
2022/12/12 03:48:24;;;;;;;22.63;12.83;;;-1.70;99.90;;;;;;5052459;28;20235;-83
2022/12/12 03:51:11;;;;;;;22.73;12.37;;;-1.60;99.90;;;;;;5034707;28;20642;-83
2022/12/12 03:54:18;;;;;;;26.87;13.00;;;-1.50;99.90;;;;;;5052175;28;20552;-83
2022/12/12 03:57:00;;;;;;;23.37;12.77;;;-1.60;99.90;;;;;;5029931;28;20556;-83
2022/12/12 03:59:30;;;;;;;25.20;13.77;;;-1.70;99.90;;;;;;5052351;28;20175;-83
2022/12/12 04:02:07;;;;;;;24.13;12.70;;;-1.60;99.90;;;;;;5034409;28;20207;-83
2022/12/12 04:05:07;;;;;;;21.63;12.57;;;-1.60;99.90;;;;;;5034498;28;20294;-84
2022/12/12 04:07:44;;;;;;;23.67;12.60;;;-1.60;99.90;;;;;;5048939;28;20219;-83
2022/12/12 04:13:02;;;;;;;22.17;13.10;;;-1.60;99.90;;;;;;5052363;28;20190;-84
2022/12/12 04:15:33;;;;;;;25.07;12.77;;;-1.60;99.90;;;;;;5034316;28;20279;-83
2022/12/12 04:18:13;;;;;;;22.50;13.57;;;-1.60;99.90;;;;;;5034330;28;20180;-83
2022/12/12 04:23:59;;;;;;;26.67;13.10;;;-1.60;99.90;;;;;;5051614;28;20243;-83
2022/12/12 04:26:39;;;;;;;23.37;13.07;;;-1.70;99.90;;;;;;5034087;28;20196;-83
2022/12/12 04:29:34;;;;;;;25.43;12.70;;;-1.70;99.90;;;;;;5034395;28;20172;-83
2022/12/12 04:32:14;;;;;;;24.13;12.97;;;-1.70;99.90;;;;;;5052033;28;20168;-83
2022/12/12 04:34:49;;;;;;;22.50;12.73;;;-1.70;99.90;;;;;;5051725;28;20218;-83
2022/12/12 04:37:24;;;;;;;22.20;12.27;;;-1.60;99.90;;;;;;5034089;28;20166;-83
2022/12/12 04:39:55;;;;;;;22.67;13.60;;;-1.70;99.90;;;;;;5034217;28;20224;-83
2022/12/12 04:42:23;;;;;;;22.77;12.33;;;-1.60;99.90;;;;;;5033808;28;20180;-82
2022/12/12 04:44:53;;;;;;;25.83;14.10;;;-1.60;99.90;;;;;;5033995;28;20200;-83
2022/12/12 04:47:20;;;;;;;23.80;13.73;;;-1.60;99.90;;;;;;5051728;28;20211;-83
2022/12/12 04:49:49;;;;;;;22.73;12.93;;;-1.60;99.90;;;;;;5033750;28;20171;-83
2022/12/12 04:52:18;;;;;;;24.20;13.53;;;-1.50;99.90;;;;;;5054105;28;20651;-82
2022/12/12 04:54:49;;;;;;;22.80;13.13;;;-1.50;99.90;;;;;;5037942;28;20204;-83
2022/12/12 04:57:30;;;;;;;19.83;11.43;;;-1.50;99.90;;;;;;5037766;28;20200;-84
2022/12/12 04:59:56;;;;;;;23.30;12.27;;;-1.40;99.90;;;;;;5055530;28;20254;-83
2022/12/12 05:03:03;;;;;;;21.23;12.20;;;-1.40;99.90;;;;;;5037586;28;20267;-82
2022/12/12 05:05:56;;;;;;;22.67;12.47;;;-1.40;99.90;;;;;;5029710;28;20189;-83
2022/12/12 05:08:27;;;;;;;21.20;12.70;;;-1.40;99.90;;;;;;5055340;28;20642;-83
2022/12/12 05:10:59;;;;;;;29.63;13.37;;;-1.50;99.90;;;;;;5055654;28;20171;-83
2022/12/12 05:13:31;;;;;;;25.37;13.40;;;-1.50;99.90;;;;;;5055300;28;20206;-84
2022/12/12 05:16:00;;;;;;;21.57;12.53;;;-1.60;99.90;;;;;;5055482;28;20180;-83
2022/12/12 05:18:26;;;;;;;22.90;13.23;;;-1.70;99.90;;;;;;5037497;28;20214;-83
2022/12/12 05:20:51;;;;;;;23.33;12.77;;;-1.70;99.90;;;;;;5037363;28;20212;-83
2022/12/12 05:23:17;;;;;;;23.83;12.77;;;-1.80;99.90;;;;;;5054719;28;20196;-83
2022/12/12 05:25:43;;;;;;;19.30;12.43;;;-1.80;99.90;;;;;;5055115;28;20177;-83
2022/12/12 05:28:08;;;;;;;24.30;12.43;;;-1.80;99.90;;;;;;5054978;28;20207;-83
2022/12/12 05:30:34;;;;;;;22.83;12.57;;;-1.80;99.90;;;;;;5055225;28;20543;-84
2022/12/12 05:32:59;;;;;;;23.50;12.97;;;-2.00;99.90;;;;;;5036830;28;20181;-84
2022/12/12 05:35:25;;;;;;;20.20;12.37;;;-2.20;99.90;;;;;;5037162;28;20596;-83
2022/12/12 05:37:51;;;;;;;22.63;12.27;;;-2.20;99.90;;;;;;5037298;28;20179;-83
2022/12/12 05:40:17;;;;;;;20.33;11.57;;;-2.30;99.90;;;;;;5037185;28;20271;-83
2022/12/12 05:42:42;;;;;;;24.30;12.40;;;-2.30;99.90;;;;;;5036878;28;20183;-83
2022/12/12 05:45:10;;;;;;;22.07;11.53;;;-2.30;99.90;;;;;;5036959;28;20203;-84
2022/12/12 05:47:35;;;;;;;22.80;12.40;;;-2.30;99.90;;;;;;5036879;28;20253;-84
2022/12/12 05:50:01;;;;;;;21.33;11.67;;;-2.30;99.90;;;;;;5036843;28;20208;-84
2022/12/12 05:52:27;;;;;;;20.97;11.67;;;-2.30;99.90;;;;;;5036837;28;20187;-83
2022/12/12 05:54:52;;;;;;;20.57;12.00;;;-2.40;99.90;;;;;;5036688;28;20203;-84
2022/12/12 05:57:18;;;;;;;21.63;11.50;;;-2.50;99.90;;;;;;5036646;28;20186;-83
2022/12/12 05:59:45;;;;;;;19.07;11.37;;;-2.60;99.90;;;;;;5054530;28;20253;-84
2022/12/12 06:02:11;;;;;;;19.20;11.50;;;-2.70;99.90;;;;;;5036103;28;20184;-84
2022/12/12 06:04:36;;;;;;;22.10;11.60;;;-2.70;99.90;;;;;;5036318;28;20244;-83
2022/12/12 06:07:03;;;;;;;17.77;10.10;;;-2.70;99.90;;;;;;5036523;28;20247;-83
2022/12/12 06:09:28;;;;;;;17.47;10.13;;;-2.80;99.90;;;;;;5036685;28;20176;-81
2022/12/12 06:11:54;;;;;;;18.40;9.87;;;-2.90;99.90;;;;;;5036441;28;20270;-82
2022/12/12 06:14:19;;;;;;;20.30;10.93;;;-3.00;99.90;;;;;;5036492;28;20687;-82
2022/12/12 06:16:45;;;;;;;18.30;10.00;;;-3.10;99.90;;;;;;5054624;28;20737;-83
2022/12/12 06:19:10;;;;;;;16.17;10.17;;;-3.10;99.90;;;;;;5036721;28;20179;-82
2022/12/12 06:21:36;;;;;;;17.80;9.90;;;-3.30;99.90;;;;;;5054326;28;20191;-82
2022/12/12 06:24:04;;;;;;;18.10;9.77;;;-3.30;99.90;;;;;;5053870;28;20290;-81
2022/12/12 06:26:30;;;;;;;16.80;9.37;;;-3.50;99.90;;;;;;5036327;28;20694;-80
2022/12/12 06:28:55;;;;;;;16.10;9.27;;;-3.40;99.90;;;;;;5036345;28;20286;-81
2022/12/12 06:31:22;;;;;;;16.33;9.37;;;-3.40;99.90;;;;;;5036329;28;20184;-82
2022/12/12 06:33:48;;;;;;;10.97;6.63;;;-3.50;99.90;;;;;;5035966;28;20222;-82
2022/12/12 06:36:22;;;;;;;41.13;22.63;;;-2.90;99.90;;;;;;5036123;28;20561;-81
2022/12/12 06:38:58;;;;;;;28.80;17.07;;;-1.40;99.90;;;;;;5036260;28;20180;-81
2022/12/12 06:41:26;;;;;;;17.53;9.63;;;-0.40;99.90;;;;;;5036025;28;20180;-82
2022/12/12 06:43:52;;;;;;;16.33;9.03;;;0.30;99.90;;;;;;5053772;28;20197;-87
2022/12/12 06:46:22;;;;;;;15.83;9.83;;;0.60;99.90;;;;;;5053528;28;20173;-84
2022/12/12 06:48:48;;;;;;;16.67;9.13;;;1.00;99.90;;;;;;5035832;28;20181;-84
2022/12/12 06:51:17;;;;;;;16.83;9.37;;;1.00;99.90;;;;;;5035905;28;20197;-86
2022/12/12 06:53:42;;;;;;;17.00;10.20;;;0.90;99.90;;;;;;5053089;28;20225;-82
2022/12/12 06:56:14;;;;;;;16.40;9.60;;;-0.20;99.90;;;;;;5035740;28;20212;-84
2022/12/12 06:58:39;;;;;;;21.63;9.67;;;-1.10;99.90;;;;;;5054029;28;20201;-82
2022/12/12 07:01:06;;;;;;;18.03;9.33;;;-1.60;99.90;;;;;;5035533;28;20224;-81
2022/12/12 07:03:32;;;;;;;16.17;8.63;;;-2.00;99.90;;;;;;5054379;28;20217;-81
2022/12/12 07:05:58;;;;;;;16.13;9.37;;;-2.30;99.90;;;;;;5053427;28;20181;-83
2022/12/12 07:08:24;;;;;;;15.50;8.80;;;-2.60;99.90;;;;;;5035190;28;20211;-78
2022/12/12 07:10:49;;;;;;;16.57;8.73;;;-2.70;99.90;;;;;;5053618;28;20174;-82
2022/12/12 07:13:15;;;;;;;15.47;8.80;;;-2.70;99.90;;;;;;5052681;28;20204;-82
2022/12/12 07:15:43;;;;;;;16.43;8.93;;;-2.80;99.90;;;;;;5034905;28;20178;-83
2022/12/12 07:18:09;;;;;;;14.47;8.13;;;-2.90;99.90;;;;;;5053222;28;20180;-81
2022/12/12 07:20:40;;;;;;;17.70;8.33;;;-3.10;99.90;;;;;;5035284;28;20180;-82
2022/12/12 07:23:07;;;;;;;16.00;8.63;;;-3.40;99.90;;;;;;5052608;28;20188;-79
2022/12/12 07:25:32;;;;;;;17.17;8.20;;;-3.40;99.90;;;;;;5053035;28;20317;-79
2022/12/12 07:27:58;;;;;;;16.07;8.73;;;-3.40;99.90;;;;;;5052836;28;20299;-79
2022/12/12 07:30:23;;;;;;;15.70;8.30;;;-3.40;99.90;;;;;;5052790;28;20174;-79
2022/12/12 07:32:50;;;;;;;19.43;10.13;;;-3.40;99.90;;;;;;5052396;28;20175;-79
2022/12/12 07:35:16;;;;;;;15.87;8.83;;;-3.50;99.90;;;;;;5034921;28;20271;-79
2022/12/12 07:37:41;;;;;;;15.97;8.80;;;-3.40;99.90;;;;;;5053001;28;20265;-78
2022/12/12 07:40:07;;;;;;;17.07;9.30;;;-3.60;99.90;;;;;;5034987;28;20274;-80
2022/12/12 07:42:33;;;;;;;17.80;8.17;;;-3.60;99.90;;;;;;5034881;28;20190;-79
2022/12/12 07:44:58;;;;;;;14.37;7.97;;;-3.60;99.90;;;;;;5034874;28;20681;-80
2022/12/12 07:47:24;;;;;;;14.47;7.60;;;-3.80;99.90;;;;;;5036264;28;20198;-79
2022/12/12 07:49:49;;;;;;;13.60;7.37;;;-3.80;99.90;;;;;;5035067;28;20178;-80
2022/12/12 07:52:15;;;;;;;13.17;7.33;;;-3.80;99.90;;;;;;5052278;28;20180;-79
2022/12/12 07:54:40;;;;;;;13.93;7.77;;;-3.90;99.90;;;;;;5052284;28;20194;-80
2022/12/12 07:57:06;;;;;;;14.43;6.47;;;-3.90;99.90;;;;;;5034641;28;20186;-80
2022/12/12 07:59:32;;;;;;;18.23;8.83;;;-3.60;99.90;;;;;;5034687;28;20339;-80
2022/12/12 08:01:57;;;;;;;13.90;7.00;;;-3.40;99.90;;;;;;5052210;28;20633;-80
2022/12/12 08:04:23;;;;;;;16.80;7.97;;;-3.50;99.90;;;;;;5051965;28;20210;-80
2022/12/12 08:06:48;;;;;;;14.13;7.07;;;-3.40;99.90;;;;;;5052368;28;20198;-80
2022/12/12 08:09:14;;;;;;;15.30;7.27;;;-3.50;99.90;;;;;;5034367;28;20193;-80
2022/12/12 08:11:40;;;;;;;14.20;7.07;;;-3.60;99.90;;;;;;5052205;28;20175;-81
2022/12/12 08:14:07;;;;;;;15.63;7.97;;;-3.60;99.90;;;;;;5052069;28;20198;-80
2022/12/12 08:16:33;;;;;;;16.37;8.33;;;-3.70;99.90;;;;;;5052005;28;20228;-80
2022/12/12 08:18:58;;;;;;;19.33;10.07;;;-3.80;99.90;;;;;;5034233;28;20262;-80
2022/12/12 08:21:25;;;;;;;17.40;10.03;;;-3.90;99.90;;;;;;5052222;28;20170;-81
2022/12/12 08:23:53;;;;;;;20.40;10.17;;;-4.00;99.90;;;;;;5051663;28;20198;-80
2022/12/12 08:26:19;;;;;;;18.80;9.73;;;-4.10;99.90;;;;;;5033946;28;20187;-80
2022/12/12 08:28:47;;;;;;;18.27;9.23;;;-4.00;99.90;;;;;;5051819;28;20181;-80
2022/12/12 08:31:14;;;;;;;17.37;9.70;;;-4.00;99.90;;;;;;5052044;28;20174;-80
2022/12/12 08:33:40;;;;;;;16.90;8.77;;;-3.90;99.90;;;;;;5051751;28;20731;-80
2022/12/12 08:36:18;;;;;;;17.63;9.17;;;-3.90;99.90;;;;;;5034357;28;20255;-80
2022/12/12 08:38:43;;;;;;;16.07;8.70;;;-4.00;99.90;;;;;;5034390;28;20178;-80
2022/12/12 08:41:11;;;;;;;16.27;9.50;;;-3.90;99.90;;;;;;5051718;28;20180;-80
2022/12/12 08:43:38;;;;;;;23.10;10.57;;;-3.90;99.90;;;;;;5051788;28;20204;-78
2022/12/12 08:46:03;;;;;;;23.17;11.83;;;-3.90;99.90;;;;;;5051960;28;20241;-80
2022/12/12 08:48:29;;;;;;;20.60;11.00;;;-3.80;99.90;;;;;;5034232;28;20205;-82
2022/12/12 08:50:55;;;;;;;20.93;10.70;;;-3.70;99.90;;;;;;5034098;28;20170;-81
2022/12/12 08:53:22;;;;;;;21.03;11.20;;;-3.50;99.90;;;;;;5033682;28;20193;-81
2022/12/12 08:55:48;;;;;;;22.50;11.20;;;-3.30;99.90;;;;;;5051695;28;20181;-81
2022/12/12 08:58:14;;;;;;;28.00;11.90;;;-2.90;99.90;;;;;;5051949;28;20185;-81
2022/12/12 09:00:40;;;;;;;28.27;13.03;;;-2.80;99.90;;;;;;5051904;28;20180;-81
2022/12/12 09:03:05;;;;;;;25.30;12.40;;;-2.80;99.90;;;;;;5051583;28;20322;-81
2022/12/12 09:05:31;;;;;;;23.70;11.63;;;-2.70;99.90;;;;;;5033908;28;20296;-80
2022/12/12 09:07:58;;;;;;;24.10;11.77;;;-2.50;99.90;;;;;;5051467;28;20210;-81
2022/12/12 09:10:24;;;;;;;24.97;12.70;;;-2.30;99.90;;;;;;5033994;28;20630;-83
2022/12/12 09:12:50;;;;;;;25.10;12.93;;;-2.40;99.90;;;;;;5051590;28;20237;-83
2022/12/12 09:15:16;;;;;;;23.67;12.23;;;-2.40;99.90;;;;;;5051753;28;20648;-82
2022/12/12 09:17:41;;;;;;;25.63;12.47;;;-2.50;99.90;;;;;;5051759;28;20182;-83
2022/12/12 09:20:08;;;;;;;22.47;12.00;;;-2.60;99.90;;;;;;5033930;28;20185;-81
2022/12/12 09:22:33;;;;;;;23.13;11.30;;;-2.60;99.90;;;;;;5051281;28;20177;-83
2022/12/12 09:24:59;;;;;;;22.57;11.50;;;-2.60;99.90;;;;;;5033653;28;20676;-83
2022/12/12 09:27:24;;;;;;;22.97;12.27;;;-2.50;99.90;;;;;;5051305;28;20206;-86
2022/12/12 09:29:50;;;;;;;23.27;11.40;;;-2.60;99.90;;;;;;5051566;28;20569;-82
2022/12/12 09:32:16;;;;;;;21.17;11.53;;;-2.60;99.90;;;;;;5033644;28;20220;-83
2022/12/12 09:34:42;;;;;;;22.53;11.27;;;-2.70;99.90;;;;;;5051120;28;20193;-83
2022/12/12 09:37:07;;;;;;;25.97;13.40;;;-2.50;99.90;;;;;;5034151;28;20272;-84
2022/12/12 09:39:33;;;;;;;30.17;15.53;;;-2.30;99.90;;;;;;5036807;28;20272;-86
2022/12/12 09:42:09;;;;;;;23.50;12.67;;;-2.30;99.90;;;;;;5037421;28;20280;-83
2022/12/12 09:44:35;;;;;;;25.10;13.23;;;-2.40;99.90;;;;;;5037257;28;20281;-81
2022/12/12 09:47:06;;;;;;;25.97;13.70;;;-2.30;99.90;;;;;;5054799;28;20650;-82
2022/12/12 09:49:49;;;;;;;27.50;14.30;;;-2.20;99.90;;;;;;5054764;28;20175;-82
2022/12/12 09:52:20;;;;;;;26.63;14.63;;;-2.40;99.90;;;;;;5036705;28;20185;-82
2022/12/12 09:54:45;;;;;;;28.70;14.00;;;-2.60;99.90;;;;;;5037023;28;20190;-82
2022/12/12 09:57:23;;;;;;;30.07;13.70;;;-2.60;99.90;;;;;;5037188;28;20176;-82
2022/12/12 10:00:04;;;;;;;1999.90;763.67;;;-2.50;99.90;;;;;;5057376;28;20181;-79
2022/12/12 10:02:32;;;;;;;617.87;88.37;;;2.00;99.90;;;;;;5057979;28;20176;-84
2022/12/12 10:05:16;;;;;;;33.77;17.70;;;3.00;99.90;;;;;;5039002;28;20216;-77
2022/12/12 10:07:56;;;;;;;25.43;14.17;;;5.00;99.90;;;;;;5054213;28;20602;-77
2022/12/12 10:10:35;;;;;;;25.87;14.33;;;2.40;99.90;;;;;;5036678;28;20256;-77
2022/12/12 10:13:03;;;;;;;28.03;15.00;;;0.30;99.90;;;;;;5036486;28;20177;-78
2022/12/12 10:15:43;;;;;;;26.80;14.63;;;0.40;99.90;;;;;;5036539;28;20180;-78
2022/12/12 10:18:16;;;;;;;27.50;14.53;;;0.80;99.90;;;;;;5036481;28;20177;-78
2022/12/12 10:20:52;;;;;;;31.67;17.30;;;0.90;99.90;;;;;;5036640;28;20260;-82
2022/12/12 10:23:35;;;;;;;31.57;16.50;;;1.30;99.90;;;;;;5054105;28;20201;-82
2022/12/12 10:26:14;;;;;;;27.90;16.37;;;1.80;99.90;;;;;;5054663;28;20166;-82
2022/12/12 10:28:40;;;;;;;28.10;15.90;;;1.10;99.90;;;;;;5036462;28;20223;-83
2022/12/12 10:31:08;;;;;;;25.80;14.17;;;0.90;99.90;;;;;;5036307;28;20659;-83
2022/12/12 10:33:43;;;;;;;22.73;13.97;;;0.60;99.90;;;;;;5035822;28;20331;-82
2022/12/12 10:36:17;;;;;;;24.80;14.97;;;0.80;99.90;;;;;;5039250;28;20181;-84
2022/12/12 10:39:01;;;;;;;23.40;12.77;;;1.20;99.90;;;;;;5016687;28;20263;-77
2022/12/12 10:41:45;;;;;;;23.40;12.90;;;1.20;99.90;;;;;;5034004;28;20179;-77
2022/12/12 10:44:25;;;;;;;22.03;13.07;;;1.10;99.90;;;;;;5033873;28;20211;-76
2022/12/12 10:47:08;;;;;;;26.77;15.13;;;1.20;99.90;;;;;;5016584;28;20198;-77
2022/12/12 10:49:34;;;;;;;25.13;14.47;;;1.30;99.90;;;;;;5032763;28;20184;-79
2022/12/12 10:52:03;;;;;;;29.37;16.13;;;1.60;99.90;;;;;;5033634;28;20170;-77
2022/12/12 10:54:34;;;;;;;22.97;13.57;;;1.90;99.90;;;;;;5033262;28;20195;-78
2022/12/12 10:57:12;;;;;;;24.67;14.90;;;2.20;99.90;;;;;;5033835;28;20189;-78
2022/12/12 10:59:46;;;;;;;21.93;13.03;;;2.40;99.90;;;;;;5016326;28;20179;-79
2022/12/12 11:02:33;;;;;;;20.27;11.37;;;2.60;99.90;;;;;;5033429;28;20178;-76
2022/12/12 11:05:19;;;;;;;21.37;12.83;;;2.70;99.90;;;;;;5034591;28;20217;-80
2022/12/12 11:08:02;;;;;;;23.03;14.27;;;2.70;99.90;;;;;;5034467;28;20186;-78
2022/12/12 11:10:34;;;;;;;18.93;10.60;;;2.80;99.90;;;;;;5034495;28;20217;-78
2022/12/12 11:13:08;;;;;;;19.43;10.97;;;2.30;99.90;;;;;;5033224;28;20202;-77
2022/12/12 11:15:48;;;;;;;19.30;11.53;;;2.30;99.90;;;;;;5016180;28;20258;-80
2022/12/12 11:18:16;;;;;;;19.20;11.20;;;2.50;99.90;;;;;;5016180;28;20186;-80
2022/12/12 11:20:52;;;;;;;18.90;11.10;;;2.80;99.90;;;;;;5033463;28;20261;-77
2022/12/12 11:23:22;;;;;;;21.00;12.17;;;3.10;99.90;;;;;;5033059;28;20679;-79
2022/12/12 11:26:00;;;;;;;21.90;10.93;;;3.00;99.90;;;;;;5033527;28;20181;-78
2022/12/12 11:28:31;;;;;;;19.03;11.60;;;2.70;99.90;;;;;;5015521;28;20794;-79
2022/12/12 11:31:00;;;;;;;18.70;11.80;;;2.90;99.90;;;;;;5015650;28;20168;-78
2022/12/12 11:33:37;;;;;;;17.47;11.20;;;2.90;99.90;;;;;;5015361;28;20199;-78
2022/12/12 11:36:05;;;;;;;18.83;11.07;;;3.00;99.90;;;;;;5032801;28;20637;-78
2022/12/12 11:38:37;;;;;;;17.43;10.93;;;3.30;99.90;;;;;;5033566;28;20258;-78
2022/12/12 11:41:09;;;;;;;19.93;11.10;;;3.50;99.90;;;;;;5015481;28;20185;-78
2022/12/12 11:43:50;;;;;;;23.13;13.47;;;3.60;99.90;;;;;;5014972;28;20202;-78
2022/12/12 11:46:22;;;;;;;25.13;17.10;;;3.70;99.90;;;;;;5015266;28;20279;-78
2022/12/12 11:48:50;;;;;;;22.40;12.97;;;3.50;99.90;;;;;;5032851;28;20638;-78
2022/12/12 11:51:34;;;;;;;20.93;13.40;;;3.50;99.90;;;;;;5015477;28;20207;-82
2022/12/12 11:54:11;;;;;;;17.70;11.73;;;3.40;99.90;;;;;;5015241;28;20193;-82
2022/12/12 11:56:40;;;;;;;26.47;15.93;;;3.40;99.90;;;;;;5032716;28;20188;-83
2022/12/12 11:59:17;;;;;;;17.93;11.50;;;3.70;99.90;;;;;;5014878;28;20189;-82
2022/12/12 12:02:17;;;;;;;27.93;15.43;;;3.50;99.90;;;;;;5014512;28;20347;-81
2022/12/12 12:05:21;;;;;;;20.13;11.57;;;3.70;99.90;;;;;;5032354;28;20209;-79
2022/12/12 12:08:14;;;;;;;22.83;12.57;;;3.50;99.90;;;;;;4984872;28;20658;-83
2022/12/12 12:10:50;;;;;;;35.73;22.33;;;3.40;99.90;;;;;;5032545;28;20186;-83
2022/12/12 12:13:28;;;;;;;23.10;12.47;;;3.30;99.90;;;;;;5014637;28;20686;-79
2022/12/12 12:16:35;;;;;;;19.67;12.30;;;3.20;99.90;;;;;;5014340;28;20185;-81
2022/12/12 12:19:10;;;;;;;19.30;12.20;;;3.30;99.90;;;;;;5014448;28;20554;-78
2022/12/12 12:21:53;;;;;;;20.93;12.03;;;3.30;99.90;;;;;;5032063;28;20180;-78
2022/12/12 12:24:19;;;;;;;18.43;11.90;;;3.40;99.90;;;;;;5032116;28;20205;-78
2022/12/12 12:26:54;;;;;;;22.83;12.67;;;3.40;99.90;;;;;;5032108;28;20227;-78
2022/12/12 12:29:26;;;;;;;19.60;11.43;;;3.50;99.90;;;;;;5014379;28;20181;-78
2022/12/12 12:32:21;;;;;;;19.63;11.30;;;3.50;99.90;;;;;;5014458;28;20248;-79
2022/12/12 12:35:17;;;;;;;18.83;11.60;;;3.60;99.90;;;;;;5014117;28;20205;-79
2022/12/12 12:37:54;;;;;;;20.07;12.13;;;3.90;99.90;;;;;;5031993;28;20186;-78
2022/12/12 12:40:34;;;;;;;19.87;11.90;;;4.00;99.90;;;;;;5014179;28;20178;-78
2022/12/12 12:43:04;;;;;;;18.93;11.10;;;3.80;99.90;;;;;;5013803;28;20181;-78
2022/12/12 12:45:44;;;;;;;20.23;12.40;;;4.10;99.90;;;;;;5031771;28;20232;-78
2022/12/12 12:48:13;;;;;;;18.57;11.93;;;4.00;99.90;;;;;;5031740;28;20206;-78
2022/12/12 12:50:58;;;;;;;20.30;12.07;;;3.90;99.90;;;;;;5014202;28;20257;-78
2022/12/12 12:53:34;;;;;;;18.97;12.17;;;3.90;99.90;;;;;;5013905;28;20223;-78
2022/12/12 12:56:07;;;;;;;20.37;12.07;;;3.90;99.90;;;;;;5031897;28;20245;-78
2022/12/12 12:58:43;;;;;;;21.50;13.70;;;3.80;99.90;;;;;;5031942;28;20232;-79
2022/12/12 13:01:21;;;;;;;20.40;11.23;;;4.00;99.90;;;;;;5014255;28;20187;-79
2022/12/12 13:03:55;;;;;;;20.13;11.47;;;4.10;99.90;;;;;;5093126;22;20243;-80